Terminal Aerodrome Forecast
Issued by NWS Shreveport, LA

Home | Current Version | Previous Version | Text Only | Print | Product List | Glossary On
Versions: 1 2 3 4 5 6 7 8 9 10 11 12 13
000
FTUS44 KSHV 202300 RRA
TAFELD
TAF
KELD 202348Z 2100/2124 15007KT P6SM SCT070 BKN250
     FM210600 VRB03KT P6SM SCT060 BKN140 BKN250
     FM210900 VRB03KT P6SM BKN050 BKN120
     FM211600 20007KT P6SM BKN050 OVC100
     FM212000 20008KT P6SM BKN060 BKN250=

USA.gov is the U.S. government's official web portal to all federal, state and local government web resources and services.